sensor_id;sensor_type;location;lat;lon;timestamp;pressure;altitude;pressure_sealevel;temperature;humidity
41264;BME280;26998;48.714;9.414;2023-02-13T00:00:42;100988.66;;;-0.61;100.00
41264;BME280;26998;48.714;9.414;2023-02-13T00:03:09;100985.09;;;-0.60;100.00
41264;BME280;26998;48.714;9.414;2023-02-13T00:05:35;100985.09;;;-0.60;100.00
41264;BME280;26998;48.714;9.414;2023-02-13T00:08:02;100952.59;;;-0.58;100.00
41264;BME280;26998;48.714;9.414;2023-02-13T00:10:28;100936.13;;;-0.61;100.00
41264;BME280;26998;48.714;9.414;2023-02-13T00:12:55;100931.72;;;-0.61;100.00
41264;BME280;26998;48.714;9.414;2023-02-13T00:15:22;100933.50;;;-0.61;100.00
41264;BME280;26998;48.714;9.414;2023-02-13T00:17:48;100933.66;;;-0.64;100.00
41264;BME280;26998;48.714;9.414;2023-02-13T00:20:15;100933.66;;;-0.64;100.00
41264;BME280;26998;48.714;9.414;2023-02-13T00:22:41;100941.84;;;-0.71;100.00
41264;BME280;26998;48.714;9.414;2023-02-13T00:25:08;100946.38;;;-0.74;100.00
41264;BME280;26998;48.714;9.414;2023-02-13T00:27:35;100941.34;;;-0.79;100.00
41264;BME280;26998;48.714;9.414;2023-02-13T00:30:04;100939.00;;;-0.85;100.00
41264;BME280;26998;48.714;9.414;2023-02-13T00:32:31;100944.50;;;-0.89;100.00
41264;BME280;26998;48.714;9.414;2023-02-13T00:34:57;100944.72;;;-0.94;100.00
41264;BME280;26998;48.714;9.414;2023-02-13T00:37:25;100942.31;;;-0.99;100.00
41264;BME280;26998;48.714;9.414;2023-02-13T00:39:51;100950.41;;;-1.03;100.00
41264;BME280;26998;48.714;9.414;2023-02-13T00:42:18;100952.16;;;-1.04;100.00
41264;BME280;26998;48.714;9.414;2023-02-13T00:44:45;100953.09;;;-1.05;100.00
41264;BME280;26998;48.714;9.414;2023-02-13T00:47:11;100942.81;;;-1.09;100.00
41264;BME280;26998;48.714;9.414;2023-02-13T00:49:38;100947.34;;;-1.13;100.00
41264;BME280;26998;48.714;9.414;2023-02-13T00:52:04;100956.94;;;-1.12;100.00
41264;BME280;26998;48.714;9.414;2023-02-13T00:54:31;100956.22;;;-1.16;100.00
41264;BME280;26998;48.714;9.414;2023-02-13T00:56:57;100953.75;;;-1.19;100.00
41264;BME280;26998;48.714;9.414;2023-02-13T00:59:25;100959.22;;;-1.23;100.00
41264;BME280;26998;48.714;9.414;2023-02-13T01:01:52;100960.34;;;-1.29;100.00
41264;BME280;26998;48.714;9.414;2023-02-13T01:04:19;100955.09;;;-1.29;100.00
41264;BME280;26998;48.714;9.414;2023-02-13T01:06:45;100946.38;;;-1.29;100.00
41264;BME280;26998;48.714;9.414;2023-02-13T01:09:13;100953.31;;;-1.28;100.00
41264;BME280;26998;48.714;9.414;2023-02-13T01:11:39;100952.47;;;-1.29;100.00
41264;BME280;26998;48.714;9.414;2023-02-13T01:14:06;100943.66;;;-1.28;100.00
41264;BME280;26998;48.714;9.414;2023-02-13T01:16:32;100945.44;;;-1.28;100.00
41264;BME280;26998;48.714;9.414;2023-02-13T01:18:58;100942.13;;;-1.32;100.00
41264;BME280;26998;48.714;9.414;2023-02-13T01:21:25;100938.78;;;-1.35;100.00
41264;BME280;26998;48.714;9.414;2023-02-13T01:23:52;100940.47;;;-1.34;100.00
41264;BME280;26998;48.714;9.414;2023-02-13T01:26:21;100940.63;;;-1.37;100.00
41264;BME280;26998;48.714;9.414;2023-02-13T01:28:51;100939.16;;;-1.43;100.00
41264;BME280;26998;48.714;9.414;2023-02-13T01:31:18;100935.81;;;-1.47;100.00
41264;BME280;26998;48.714;9.414;2023-02-13T01:33:45;100929.00;;;-1.51;100.00
41264;BME280;26998;48.714;9.414;2023-02-13T01:36:12;100937.84;;;-1.53;100.00
41264;BME280;26998;48.714;9.414;2023-02-13T01:38:38;100937.09;;;-1.55;100.00
41264;BME280;26998;48.714;9.414;2023-02-13T01:41:06;100938.00;;;-1.56;100.00
41264;BME280;26998;48.714;9.414;2023-02-13T01:46:33;100934.81;;;-1.63;100.00
41264;BME280;26998;48.714;9.414;2023-02-13T01:49:11;100941.91;;;-1.65;100.00
41264;BME280;26998;48.714;9.414;2023-02-13T01:51:39;100932.41;;;-1.68;100.00
41264;BME280;26998;48.714;9.414;2023-02-13T01:54:09;100930.78;;;-1.70;100.00
41264;BME280;26998;48.714;9.414;2023-02-13T01:56:51;100928.16;;;-1.70;100.00
41264;BME280;26998;48.714;9.414;2023-02-13T01:59:33;100929.97;;;-1.72;100.00
41264;BME280;26998;48.714;9.414;2023-02-13T02:02:03;100924.81;;;-1.74;100.00
41264;BME280;26998;48.714;9.414;2023-02-13T02:04:35;100925.72;;;-1.75;100.00
41264;BME280;26998;48.714;9.414;2023-02-13T02:07:08;100932.69;;;-1.74;100.00
41264;BME280;26998;48.714;9.414;2023-02-13T02:09:38;100926.59;;;-1.74;100.00
41264;BME280;26998;48.714;9.414;2023-02-13T02:14:44;100920.41;;;-1.73;100.00
41264;BME280;26998;48.714;9.414;2023-02-13T02:17:12;100921.63;;;-1.80;100.00
41264;BME280;26998;48.714;9.414;2023-02-13T02:25:59;100914.22;;;-1.91;100.00
41264;BME280;26998;48.714;9.414;2023-02-13T02:31:51;100910.09;;;-1.97;100.00
41264;BME280;26998;48.714;9.414;2023-02-13T02:34:40;100911.94;;;-1.99;100.00
41264;BME280;26998;48.714;9.414;2023-02-13T02:40:32;100914.72;;;-2.02;100.00
41264;BME280;26998;48.714;9.414;2023-02-13T02:48:42;100913.06;;;-2.04;100.00
41264;BME280;26998;48.714;9.414;2023-02-13T02:51:39;100915.81;;;-2.07;100.00
41264;BME280;26998;48.714;9.414;2023-02-13T02:54:15;100912.34;;;-2.08;100.00
41264;BME280;26998;48.714;9.414;2023-02-13T02:56:47;100910.63;;;-2.09;100.00
41264;BME280;26998;48.714;9.414;2023-02-13T02:59:16;100917.72;;;-2.11;100.00
41264;BME280;26998;48.714;9.414;2023-02-13T03:01:46;100912.50;;;-2.11;100.00
41264;BME280;26998;48.714;9.414;2023-02-13T03:04:43;100911.44;;;-2.07;100.00
41264;BME280;26998;48.714;9.414;2023-02-13T03:07:14;100917.72;;;-2.11;100.00
41264;BME280;26998;48.714;9.414;2023-02-13T03:09:45;100914.31;;;-2.13;100.00
41264;BME280;26998;48.714;9.414;2023-02-13T03:12:16;100907.50;;;-2.17;100.00
41264;BME280;26998;48.714;9.414;2023-02-13T03:14:45;100913.72;;;-2.20;100.00
41264;BME280;26998;48.714;9.414;2023-02-13T03:17:14;100918.13;;;-2.20;100.00
41264;BME280;26998;48.714;9.414;2023-02-13T03:19:49;100919.09;;;-2.23;100.00
41264;BME280;26998;48.714;9.414;2023-02-13T03:22:38;100913.16;;;-2.26;100.00
41264;BME280;26998;48.714;9.414;2023-02-13T03:33:19;100929.75;;;-2.27;100.00
41264;BME280;26998;48.714;9.414;2023-02-13T03:36:09;100931.66;;;-2.31;100.00
41264;BME280;26998;48.714;9.414;2023-02-13T03:38:43;100940.44;;;-2.32;100.00
41264;BME280;26998;48.714;9.414;2023-02-13T03:41:17;100931.78;;;-2.34;100.00
41264;BME280;26998;48.714;9.414;2023-02-13T03:46:35;100944.13;;;-2.36;100.00
41264;BME280;26998;48.714;9.414;2023-02-13T03:49:05;100945.00;;;-2.37;100.00
41264;BME280;26998;48.714;9.414;2023-02-13T03:51:37;100940.66;;;-2.37;100.00
41264;BME280;26998;48.714;9.414;2023-02-13T03:54:15;100953.75;;;-2.37;100.00
41264;BME280;26998;48.714;9.414;2023-02-13T03:56:42;100959.03;;;-2.38;100.00
41264;BME280;26998;48.714;9.414;2023-02-13T03:59:19;100950.34;;;-2.39;100.00
41264;BME280;26998;48.714;9.414;2023-02-13T04:04:44;100960.81;;;-2.39;100.00
41264;BME280;26998;48.714;9.414;2023-02-13T04:07:16;100956.41;;;-2.38;100.00
41264;BME280;26998;48.714;9.414;2023-02-13T04:09:44;100958.09;;;-2.37;100.00
41264;BME280;26998;48.714;9.414;2023-02-13T04:12:25;100957.25;;;-2.38;100.00
41264;BME280;26998;48.714;9.414;2023-02-13T04:17:42;100962.38;;;-2.35;100.00
41264;BME280;26998;48.714;9.414;2023-02-13T04:20:11;100962.38;;;-2.35;100.00
41264;BME280;26998;48.714;9.414;2023-02-13T04:22:43;100966.03;;;-2.39;100.00
41264;BME280;26998;48.714;9.414;2023-02-13T04:25:11;100970.44;;;-2.39;100.00
41264;BME280;26998;48.714;9.414;2023-02-13T04:27:39;100966.03;;;-2.39;100.00
41264;BME280;26998;48.714;9.414;2023-02-13T04:30:05;100969.47;;;-2.37;100.00
41264;BME280;26998;48.714;9.414;2023-02-13T04:32:32;100978.09;;;-2.35;100.00
41264;BME280;26998;48.714;9.414;2023-02-13T04:34:59;100970.34;;;-2.38;100.00
41264;BME280;26998;48.714;9.414;2023-02-13T04:37:26;100969.47;;;-2.37;100.00
41264;BME280;26998;48.714;9.414;2023-02-13T04:39:52;100972.25;;;-2.41;100.00
41264;BME280;26998;48.714;9.414;2023-02-13T04:42:19;100971.41;;;-2.42;100.00
41264;BME280;26998;48.714;9.414;2023-02-13T04:44:45;100967.81;;;-2.39;100.00
41264;BME280;26998;48.714;9.414;2023-02-13T04:47:12;100962.75;;;-2.44;100.00
41264;BME280;26998;48.714;9.414;2023-02-13T04:49:38;100967.88;;;-2.41;100.00
41264;BME280;26998;48.714;9.414;2023-02-13T04:52:05;100970.22;;;-2.35;100.00
41264;BME280;26998;48.714;9.414;2023-02-13T04:54:31;100971.28;;;-2.39;100.00
41264;BME280;26998;48.714;9.414;2023-02-13T04:56:58;100968.59;;;-2.37;100.00
41264;BME280;26998;48.714;9.414;2023-02-13T04:59:25;100972.84;;;-2.35;100.00
41264;BME280;26998;48.714;9.414;2023-02-13T05:01:51;100973.69;;;-2.34;100.00
41264;BME280;26998;48.714;9.414;2023-02-13T05:04:18;100967.63;;;-2.35;100.00
41264;BME280;26998;48.714;9.414;2023-02-13T05:06:45;100966.03;;;-2.39;100.00
41264;BME280;26998;48.714;9.414;2023-02-13T05:09:11;100967.81;;;-2.39;100.00
41264;BME280;26998;48.714;9.414;2023-02-13T05:11:38;100973.22;;;-2.44;100.00
41264;BME280;26998;48.714;9.414;2023-02-13T05:14:04;100981.09;;;-2.44;100.00
41264;BME280;26998;48.714;9.414;2023-02-13T05:16:31;100978.66;;;-2.48;100.00
41264;BME280;26998;48.714;9.414;2023-02-13T05:18:58;100985.00;;;-2.54;100.00
41264;BME280;26998;48.714;9.414;2023-02-13T05:21:26;100981.59;;;-2.56;100.00
41264;BME280;26998;48.714;9.414;2023-02-13T05:23:52;100986.09;;;-2.60;100.00
41264;BME280;26998;48.714;9.414;2023-02-13T05:26:19;100986.19;;;-2.61;100.00
41264;BME280;26998;48.714;9.414;2023-02-13T05:28:47;100991.41;;;-2.61;100.00
41264;BME280;26998;48.714;9.414;2023-02-13T05:31:14;100993.34;;;-2.66;100.00
41264;BME280;26998;48.714;9.414;2023-02-13T05:33:41;100988.97;;;-2.66;100.00
41264;BME280;26998;48.714;9.414;2023-02-13T05:36:07;100998.53;;;-2.65;100.00
41264;BME280;26998;48.714;9.414;2023-02-13T05:38:34;101002.72;;;-2.61;100.00
41264;BME280;26998;48.714;9.414;2023-02-13T05:41:01;100995.66;;;-2.59;100.00
41264;BME280;26998;48.714;9.414;2023-02-13T05:43:28;100998.25;;;-2.59;100.00
41264;BME280;26998;48.714;9.414;2023-02-13T05:46:01;100993.22;;;-2.63;100.00
41264;BME280;26998;48.714;9.414;2023-02-13T05:48:29;100989.88;;;-2.67;100.00
41264;BME280;26998;48.714;9.414;2023-02-13T05:50:55;100999.56;;;-2.69;100.00
41264;BME280;26998;48.714;9.414;2023-02-13T05:53:23;101002.38;;;-2.73;100.00
41264;BME280;26998;48.714;9.414;2023-02-13T05:55:49;101000.53;;;-2.71;100.00
41264;BME280;26998;48.714;9.414;2023-02-13T05:58:20;101002.38;;;-2.73;100.00
41264;BME280;26998;48.714;9.414;2023-02-13T06:00:47;100997.25;;;-2.76;100.00
41264;BME280;26998;48.714;9.414;2023-02-13T06:03:13;100999.78;;;-2.75;100.00
41264;BME280;26998;48.714;9.414;2023-02-13T06:05:40;101000.59;;;-2.73;100.00
41264;BME280;26998;48.714;9.414;2023-02-13T06:08:07;100995.41;;;-2.74;100.00
41264;BME280;26998;48.714;9.414;2023-02-13T06:10:33;100998.03;;;-2.74;100.00
41264;BME280;26998;48.714;9.414;2023-02-13T06:13:00;101001.69;;;-2.79;100.00
41264;BME280;26998;48.714;9.414;2023-02-13T06:15:27;101005.28;;;-2.81;100.00
41264;BME280;26998;48.714;9.414;2023-02-13T06:17:54;101004.25;;;-2.77;100.00
41264;BME280;26998;48.714;9.414;2023-02-13T06:20:21;101005.16;;;-2.78;100.00
41264;BME280;26998;48.714;9.414;2023-02-13T06:22:49;101008.56;;;-2.76;100.00
41264;BME280;26998;48.714;9.414;2023-02-13T06:25:16;101020.00;;;-2.79;100.00
41264;BME280;26998;48.714;9.414;2023-02-13T06:27:42;101015.00;;;-2.85;100.00
41264;BME280;26998;48.714;9.414;2023-02-13T06:30:10;101022.28;;;-2.93;100.00
41264;BME280;26998;48.714;9.414;2023-02-13T06:32:38;101020.69;;;-2.95;100.00
41264;BME280;26998;48.714;9.414;2023-02-13T06:35:05;101030.53;;;-3.02;100.00
41264;BME280;26998;48.714;9.414;2023-02-13T06:37:33;101036.59;;;-3.02;100.00
41264;BME280;26998;48.714;9.414;2023-02-13T06:40:00;101032.38;;;-3.06;100.00
41264;BME280;26998;48.714;9.414;2023-02-13T06:42:26;101037.72;;;-3.09;100.00
41264;BME280;26998;48.714;9.414;2023-02-13T06:44:53;101037.59;;;-3.06;100.00
41264;BME280;26998;48.714;9.414;2023-02-13T06:47:20;101028.88;;;-3.05;100.00
41264;BME280;26998;48.714;9.414;2023-02-13T06:49:47;101031.19;;;-2.97;100.00
41264;BME280;26998;48.714;9.414;2023-02-13T06:52:13;101035.34;;;-2.91;100.00
41264;BME280;26998;48.714;9.414;2023-02-13T06:54:40;101031.91;;;-2.93;100.00
41264;BME280;26998;48.714;9.414;2023-02-13T06:57:14;101036.28;;;-2.94;100.00
41264;BME280;26998;48.714;9.414;2023-02-13T06:59:40;101038.00;;;-2.93;100.00
41264;BME280;26998;48.714;9.414;2023-02-13T07:02:11;101032.66;;;-2.90;100.00
41264;BME280;26998;48.714;9.414;2023-02-13T07:04:39;101027.25;;;-2.85;100.00
41264;BME280;26998;48.714;9.414;2023-02-13T07:07:05;101028.09;;;-2.85;100.00
41264;BME280;26998;48.714;9.414;2023-02-13T07:09:35;101019.19;;;-2.81;100.00
41264;BME280;26998;48.714;9.414;2023-02-13T07:12:03;101024.41;;;-2.79;100.00
41264;BME280;26998;48.714;9.414;2023-02-13T07:14:30;101021.34;;;-2.68;100.00
41264;BME280;26998;48.714;9.414;2023-02-13T07:16:56;101020.25;;;-2.63;100.00
41264;BME280;26998;48.714;9.414;2023-02-13T07:19:24;101016.59;;;-2.59;100.00
41264;BME280;26998;48.714;9.414;2023-02-13T07:21:50;101022.63;;;-2.57;100.00
41264;BME280;26998;48.714;9.414;2023-02-13T07:24:19;101019.16;;;-2.57;100.00
41264;BME280;26998;48.714;9.414;2023-02-13T07:26:46;101032.28;;;-2.59;100.00
41264;BME280;26998;48.714;9.414;2023-02-13T07:29:13;101030.81;;;-2.64;100.00
41264;BME280;26998;48.714;9.414;2023-02-13T07:31:39;101026.94;;;-2.56;100.00
41264;BME280;26998;48.714;9.414;2023-02-13T07:34:08;101025.00;;;-2.50;100.00
41264;BME280;26998;48.714;9.414;2023-02-13T07:36:34;101014.34;;;-2.46;100.00
41264;BME280;26998;48.714;9.414;2023-02-13T07:39:01;101012.38;;;-2.41;100.00
41264;BME280;26998;48.714;9.414;2023-02-13T07:41:27;101011.38;;;-2.37;100.00
41264;BME280;26998;48.714;9.414;2023-02-13T07:43:54;101013.91;;;-2.35;100.00
41264;BME280;26998;48.714;9.414;2023-02-13T07:46:21;101014.22;;;-2.43;100.00
41264;BME280;26998;48.714;9.414;2023-02-13T07:48:47;101012.47;;;-2.42;100.00
41264;BME280;26998;48.714;9.414;2023-02-13T07:51:14;101008.00;;;-2.40;100.00
41264;BME280;26998;48.714;9.414;2023-02-13T07:53:40;101004.03;;;-2.28;100.00
41264;BME280;26998;48.714;9.414;2023-02-13T07:56:09;101004.09;;;-2.10;100.00
41264;BME280;26998;48.714;9.414;2023-02-13T07:58:36;101006.09;;;-2.15;100.00
41264;BME280;26998;48.714;9.414;2023-02-13T08:01:12;100998.44;;;-1.99;100.00
41264;BME280;26998;48.714;9.414;2023-02-13T08:03:39;100996.66;;;-1.98;100.00
41264;BME280;26998;48.714;9.414;2023-02-13T08:06:06;100994.63;;;-1.92;100.00
41264;BME280;26998;48.714;9.414;2023-02-13T08:08:34;100998.41;;;-1.78;100.00
41264;BME280;26998;48.714;9.414;2023-02-13T08:11:21;100998.19;;;-1.34;100.00
41264;BME280;26998;48.714;9.414;2023-02-13T08:13:48;101002.28;;;-1.08;100.00
41264;BME280;26998;48.714;9.414;2023-02-13T08:16:15;100999.47;;;-0.86;100.00
41264;BME280;26998;48.714;9.414;2023-02-13T08:18:42;101002.13;;;-0.69;100.00
41264;BME280;26998;48.714;9.414;2023-02-13T08:21:09;101022.03;;;-0.82;100.00
41264;BME280;26998;48.714;9.414;2023-02-13T08:23:36;101047.22;;;-0.78;100.00
41264;BME280;26998;48.714;9.414;2023-02-13T08:26:03;101087.47;;;-0.59;100.00
41264;BME280;26998;48.714;9.414;2023-02-13T08:28:30;101127.06;;;-0.44;100.00
41264;BME280;26998;48.714;9.414;2023-02-13T08:30:56;101160.72;;;-0.53;100.00
41264;BME280;26998;48.714;9.414;2023-02-13T08:33:23;101202.59;;;-0.68;100.00
41264;BME280;26998;48.714;9.414;2023-02-13T08:35:50;101228.81;;;-0.29;100.00
41264;BME280;26998;48.714;9.414;2023-02-13T08:38:17;101257.38;;;-0.21;100.00
41264;BME280;26998;48.714;9.414;2023-02-13T08:40:43;101285.16;;;0.22;100.00
41264;BME280;26998;48.714;9.414;2023-02-13T08:43:10;101314.56;;;0.30;100.00
41264;BME280;26998;48.714;9.414;2023-02-13T08:45:36;101331.25;;;0.67;100.00
41264;BME280;26998;48.714;9.414;2023-02-13T08:48:03;101314.84;;;0.79;100.00
41264;BME280;26998;48.714;9.414;2023-02-13T08:50:30;101315.97;;;1.10;100.00
41264;BME280;26998;48.714;9.414;2023-02-13T08:52:57;101286.47;;;1.03;100.00
41264;BME280;26998;48.714;9.414;2023-02-13T08:55:24;101273.38;;;1.19;100.00
41264;BME280;26998;48.714;9.414;2023-02-13T08:57:51;101258.56;;;1.17;100.00
41264;BME280;26998;48.714;9.414;2023-02-13T09:00:18;101258.44;;;0.85;100.00
41264;BME280;26998;48.714;9.414;2023-02-13T09:02:44;101268.41;;;1.13;100.00
41264;BME280;26998;48.714;9.414;2023-02-13T09:05:11;101264.47;;;1.55;100.00
41264;BME280;26998;48.714;9.414;2023-02-13T09:07:37;101250.31;;;2.05;100.00
41264;BME280;26998;48.714;9.414;2023-02-13T09:10:05;101219.63;;;2.04;100.00
41264;BME280;26998;48.714;9.414;2023-02-13T09:12:32;101197.41;;;1.92;100.00
41264;BME280;26998;48.714;9.414;2023-02-13T09:14:58;101192.91;;;1.94;100.00
41264;BME280;26998;48.714;9.414;2023-02-13T09:17:24;101197.91;;;2.15;100.00
41264;BME280;26998;48.714;9.414;2023-02-13T09:19:51;101213.50;;;2.19;100.00
41264;BME280;26998;48.714;9.414;2023-02-13T09:22:18;101202.03;;;2.50;100.00
41264;BME280;26998;48.714;9.414;2023-02-13T09:24:44;101170.47;;;2.63;100.00
41264;BME280;26998;48.714;9.414;2023-02-13T09:27:11;101174.06;;;2.62;100.00
41264;BME280;26998;48.714;9.414;2023-02-13T09:29:38;101172.28;;;2.77;100.00
41264;BME280;26998;48.714;9.414;2023-02-13T09:32:05;101163.66;;;3.04;100.00
41264;BME280;26998;48.714;9.414;2023-02-13T09:34:31;101142.78;;;2.99;100.00
41264;BME280;26998;48.714;9.414;2023-02-13T09:36:58;101137.31;;;3.59;100.00
41264;BME280;26998;48.714;9.414;2023-02-13T09:39:24;101088.78;;;4.27;100.00
41264;BME280;26998;48.714;9.414;2023-02-13T09:41:52;101022.66;;;4.00;100.00
41264;BME280;26998;48.714;9.414;2023-02-13T09:46:52;100999.31;;;4.71;100.00
41264;BME280;26998;48.714;9.414;2023-02-13T09:49:23;100931.91;;;5.12;100.00
41264;BME280;26998;48.714;9.414;2023-02-13T09:51:54;100930.19;;;4.86;100.00
41264;BME280;26998;48.714;9.414;2023-02-13T09:54:22;100931.06;;;5.11;100.00
41264;BME280;26998;48.714;9.414;2023-02-13T10:02:07;100926.25;;;5.16;100.00
41264;BME280;26998;48.714;9.414;2023-02-13T10:07:36;100939.94;;;5.10;100.00
41264;BME280;26998;48.714;9.414;2023-02-13T10:10:24;100936.63;;;5.43;100.00
41264;BME280;26998;48.714;9.414;2023-02-13T10:13:18;100893.16;;;6.04;100.00
41264;BME280;26998;48.714;9.414;2023-02-13T10:18:21;100899.19;;;5.59;100.00
41264;BME280;26998;48.714;9.414;2023-02-13T10:23:35;100856.72;;;6.39;100.00
41264;BME280;26998;48.714;9.414;2023-02-13T10:26:06;100834.47;;;6.63;100.00
41264;BME280;26998;48.714;9.414;2023-02-13T10:28:43;100823.72;;;6.64;100.00
41264;BME280;26998;48.714;9.414;2023-02-13T10:31:18;100834.03;;;6.90;100.00
41264;BME280;26998;48.714;9.414;2023-02-13T10:33:49;100817.75;;;6.83;100.00
41264;BME280;26998;48.714;9.414;2023-02-13T10:36:21;100830.31;;;6.81;100.00
41264;BME280;26998;48.714;9.414;2023-02-13T10:39:04;100839.56;;;6.32;100.00
41264;BME280;26998;48.714;9.414;2023-02-13T10:41:53;100833.41;;;6.32;100.00
41264;BME280;26998;48.714;9.414;2023-02-13T10:50:19;100811.69;;;6.92;100.00
41264;BME280;26998;48.714;9.414;2023-02-13T10:52:54;100801.34;;;7.10;100.00
41264;BME280;26998;48.714;9.414;2023-02-13T11:01:05;100772.97;;;7.00;100.00
41264;BME280;26998;48.714;9.414;2023-02-13T11:03:34;100763.75;;;7.04;100.00
41264;BME280;26998;48.714;9.414;2023-02-13T11:06:05;100744.44;;;7.74;100.00
41264;BME280;26998;48.714;9.414;2023-02-13T11:08:35;100752.16;;;7.47;100.00
41264;BME280;26998;48.714;9.414;2023-02-13T11:11:34;100736.97;;;7.99;100.00
41264;BME280;26998;48.714;9.414;2023-02-13T11:14:22;100745.34;;;6.91;100.00
41264;BME280;26998;48.714;9.414;2023-02-13T11:19:31;100755.72;;;7.15;100.00
41264;BME280;26998;48.714;9.414;2023-02-13T11:22:07;100756.25;;;7.30;100.00
41264;BME280;26998;48.714;9.414;2023-02-13T11:24:35;100742.75;;;7.43;100.00
41264;BME280;26998;48.714;9.414;2023-02-13T11:27:05;100747.38;;;7.20;100.00
41264;BME280;26998;48.714;9.414;2023-02-13T11:29:34;100747.97;;;7.23;100.00
41264;BME280;26998;48.714;9.414;2023-02-13T11:32:23;100744.06;;;7.48;100.00
41264;BME280;26998;48.714;9.414;2023-02-13T11:34:50;100738.72;;;7.48;100.00
41264;BME280;26998;48.714;9.414;2023-02-13T11:37:19;100742.63;;;7.75;100.00
41264;BME280;26998;48.714;9.414;2023-02-13T11:39:48;100744.31;;;7.24;100.00
41264;BME280;26998;48.714;9.414;2023-02-13T11:44:52;100729.66;;;7.91;100.00
41264;BME280;26998;48.714;9.414;2023-02-13T11:47:35;100721.00;;;8.59;100.00
41264;BME280;26998;48.714;9.414;2023-02-13T11:50:05;100722.25;;;8.74;100.00
41264;BME280;26998;48.714;9.414;2023-02-13T11:52:34;100722.00;;;8.67;100.00
41264;BME280;26998;48.714;9.414;2023-02-13T11:55:04;100721.97;;;8.48;100.00
41264;BME280;26998;48.714;9.414;2023-02-13T11:57:36;100725.72;;;8.26;100.00
41264;BME280;26998;48.714;9.414;2023-02-13T12:02:54;100716.81;;;8.06;100.00
41264;BME280;26998;48.714;9.414;2023-02-13T12:05:23;100717.22;;;8.71;100.00
41264;BME280;26998;48.714;9.414;2023-02-13T12:07:51;100712.72;;;9.00;100.00
41264;BME280;26998;48.714;9.414;2023-02-13T12:10:26;100720.44;;;8.55;100.00
41264;BME280;26998;48.714;9.414;2023-02-13T12:13:13;100712.59;;;8.63;100.00
41264;BME280;26998;48.714;9.414;2023-02-13T12:15:41;100715.38;;;8.71;100.00
41264;BME280;26998;48.714;9.414;2023-02-13T12:18:24;100702.06;;;8.52;100.00
41264;BME280;26998;48.714;9.414;2023-02-13T12:26:09;100695.75;;;8.72;100.00
41264;BME280;26998;48.714;9.414;2023-02-13T12:29:26;100694.06;;;8.62;100.00
41264;BME280;26998;48.714;9.414;2023-02-13T12:40:25;100678.47;;;9.43;100.00
41264;BME280;26998;48.714;9.414;2023-02-13T12:45:52;100670.50;;;8.57;100.00
41264;BME280;26998;48.714;9.414;2023-02-13T12:48:41;100672.84;;;8.31;100.00
41264;BME280;26998;48.714;9.414;2023-02-13T12:57:13;100681.28;;;8.46;100.00
41264;BME280;26998;48.714;9.414;2023-02-13T13:11:08;100681.53;;;8.14;100.00
41264;BME280;26998;48.714;9.414;2023-02-13T13:14:06;100677.16;;;8.13;100.00
41264;BME280;26998;48.714;9.414;2023-02-13T13:16:46;100675.03;;;7.97;100.00
41264;BME280;26998;48.714;9.414;2023-02-13T13:22:17;100675.00;;;7.87;100.00
41264;BME280;26998;48.714;9.414;2023-02-13T13:25:09;100679.69;;;8.14;100.00
41264;BME280;26998;48.714;9.414;2023-02-13T13:27:43;100670.97;;;7.93;100.00
41264;BME280;26998;48.714;9.414;2023-02-13T13:30:22;100673.53;;;8.14;100.00
41264;BME280;26998;48.714;9.414;2023-02-13T13:32:59;100673.44;;;7.84;100.00
41264;BME280;26998;48.714;9.414;2023-02-13T13:35:28;100676.38;;;7.81;100.00
41264;BME280;26998;48.714;9.414;2023-02-13T13:38:07;100678.09;;;7.82;100.00
41264;BME280;26998;48.714;9.414;2023-02-13T13:40:50;100681.53;;;7.63;100.00
41264;BME280;26998;48.714;9.414;2023-02-13T13:43:27;100678.09;;;7.82;100.00
41264;BME280;26998;48.714;9.414;2023-02-13T13:46:18;100669.28;;;7.92;100.00
41264;BME280;26998;48.714;9.414;2023-02-13T13:48:58;100669.16;;;8.03;100.00
41264;BME280;26998;48.714;9.414;2023-02-13T13:51:30;100663.00;;;8.22;100.00
41264;BME280;26998;48.714;9.414;2023-02-13T14:11:00;100670.56;;;7.57;100.00
41264;BME280;26998;48.714;9.414;2023-02-13T14:13:33;100673.94;;;7.59;100.00
41264;BME280;26998;48.714;9.414;2023-02-13T14:16:00;100675.41;;;7.73;100.00
41264;BME280;26998;48.714;9.414;2023-02-13T14:18:28;100675.41;;;7.42;100.00
41264;BME280;26998;48.714;9.414;2023-02-13T14:20:58;100665.91;;;7.49;100.00
41264;BME280;26998;48.714;9.414;2023-02-13T14:34:08;100708.56;;;6.75;100.00
41264;BME280;26998;48.714;9.414;2023-02-13T14:36:46;100715.00;;;6.93;100.00
41264;BME280;26998;48.714;9.414;2023-02-13T14:39:27;100715.84;;;6.73;100.00
41264;BME280;26998;48.714;9.414;2023-02-13T14:44:33;100721.94;;;6.85;100.00
41264;BME280;26998;48.714;9.414;2023-02-13T14:47:10;100721.91;;;6.64;100.00
41264;BME280;26998;48.714;9.414;2023-02-13T14:49:39;100734.06;;;6.45;100.00
41264;BME280;26998;48.714;9.414;2023-02-13T14:52:16;100720.91;;;6.76;100.00
41264;BME280;26998;48.714;9.414;2023-02-13T14:54:48;100718.66;;;6.60;100.00
41264;BME280;26998;48.714;9.414;2023-02-13T14:57:43;100717.81;;;6.60;100.00
41264;BME280;26998;48.714;9.414;2023-02-13T15:00:24;100719.28;;;6.53;100.00
41264;BME280;26998;48.714;9.414;2023-02-13T15:02:57;100720.63;;;6.47;100.00
41264;BME280;26998;48.714;9.414;2023-02-13T15:05:30;100728.44;;;6.16;100.00
41264;BME280;26998;48.714;9.414;2023-02-13T15:08:15;100736.66;;;6.13;100.00
41264;BME280;26998;48.714;9.414;2023-02-13T15:10:49;100747.41;;;6.12;100.00
41264;BME280;26998;48.714;9.414;2023-02-13T15:13:21;100738.00;;;5.96;100.00
41264;BME280;26998;48.714;9.414;2023-02-13T15:16:09;100749.38;;;5.98;100.00
41264;BME280;26998;48.714;9.414;2023-02-13T15:18:41;100761.38;;;5.91;100.00
41264;BME280;26998;48.714;9.414;2023-02-13T15:21:15;100748.97;;;5.81;100.00
41264;BME280;26998;48.714;9.414;2023-02-13T15:23:43;100758.13;;;5.88;100.00